sensor_id;sensor_type;location;lat;lon;timestamp;pressure;altitude;pressure_sealevel;temperature;humidity
9091;BME280;4581;42.416;25.598;2023-08-06T00:01:18;97148.47;;;24.22;100.00
9091;BME280;4581;42.416;25.598;2023-08-06T00:03:47;97137.22;;;24.19;100.00
9091;BME280;4581;42.416;25.598;2023-08-06T00:06:14;97138.84;;;24.20;100.00
9091;BME280;4581;42.416;25.598;2023-08-06T00:08:41;97138.84;;;24.20;100.00
9091;BME280;4581;42.416;25.598;2023-08-06T00:11:07;97133.97;;;24.12;100.00
9091;BME280;4581;42.416;25.598;2023-08-06T00:13:34;97151.63;;;24.11;100.00
9091;BME280;4581;42.416;25.598;2023-08-06T00:16:13;97155.25;;;24.06;100.00
9091;BME280;4581;42.416;25.598;2023-08-06T00:18:40;97153.84;;;24.09;100.00
9091;BME280;4581;42.416;25.598;2023-08-06T00:21:07;97151.31;;;24.12;100.00
9091;BME280;4581;42.416;25.598;2023-08-06T00:23:34;97142.22;;;24.12;100.00
9091;BME280;4581;42.416;25.598;2023-08-06T00:26:01;97143.06;;;24.12;100.00
9091;BME280;4581;42.416;25.598;2023-08-06T00:28:27;97146.69;;;24.08;100.00
9091;BME280;4581;42.416;25.598;2023-08-06T00:30:55;97139.91;;;24.00;100.00
9091;BME280;4581;42.416;25.598;2023-08-06T00:33:22;97139.56;;;24.07;100.00
9091;BME280;4581;42.416;25.598;2023-08-06T00:35:50;97141.19;;;24.08;100.00
9091;BME280;4581;42.416;25.598;2023-08-06T00:38:16;97135.66;;;24.08;100.00
9091;BME280;4581;42.416;25.598;2023-08-06T00:40:43;97145.06;;;24.07;100.00
9091;BME280;4581;42.416;25.598;2023-08-06T00:43:10;97140.34;;;24.07;100.00
9091;BME280;4581;42.416;25.598;2023-08-06T00:45:37;97136.50;;;24.08;100.00
9091;BME280;4581;42.416;25.598;2023-08-06T00:48:05;97129.34;;;24.07;100.00
9091;BME280;4581;42.416;25.598;2023-08-06T00:50:31;97137.09;;;24.05;100.00
9091;BME280;4581;42.416;25.598;2023-08-06T00:52:59;97138.19;;;24.04;100.00
9091;BME280;4581;42.416;25.598;2023-08-06T00:55:26;97133.81;;;24.03;100.00
9091;BME280;4581;42.416;25.598;2023-08-06T00:57:53;97121.44;;;24.01;100.00
9091;BME280;4581;42.416;25.598;2023-08-06T01:00:24;97125.91;;;23.97;100.00
9091;BME280;4581;42.416;25.598;2023-08-06T01:02:51;97128.06;;;24.00;100.00
9091;BME280;4581;42.416;25.598;2023-08-06T01:05:20;97120.94;;;23.99;100.00
9091;BME280;4581;42.416;25.598;2023-08-06T01:10:56;97102.78;;;23.98;100.00
9091;BME280;4581;42.416;25.598;2023-08-06T01:16:18;97112.53;;;23.90;100.00
9091;BME280;4581;42.416;25.598;2023-08-06T01:18:47;97105.91;;;23.91;100.00
9091;BME280;4581;42.416;25.598;2023-08-06T01:21:16;97097.16;;;23.84;100.00
9091;BME280;4581;42.416;25.598;2023-08-06T01:23:43;97092.44;;;23.90;100.00
9091;BME280;4581;42.416;25.598;2023-08-06T01:29:23;97092.19;;;23.86;100.00
9091;BME280;4581;42.416;25.598;2023-08-06T01:31:52;97089.13;;;23.88;100.00
9091;BME280;4581;42.416;25.598;2023-08-06T01:34:25;97075.69;;;23.86;100.00
9091;BME280;4581;42.416;25.598;2023-08-06T01:36:54;97074.56;;;23.87;100.00
9091;BME280;4581;42.416;25.598;2023-08-06T01:39:21;97075.69;;;23.86;100.00
9091;BME280;4581;42.416;25.598;2023-08-06T01:41:50;97071.00;;;23.87;100.00
9091;BME280;4581;42.416;25.598;2023-08-06T01:44:17;97064.34;;;23.88;100.00
9091;BME280;4581;42.416;25.598;2023-08-06T01:46:44;97055.88;;;23.84;100.00
9091;BME280;4581;42.416;25.598;2023-08-06T01:49:11;97064.06;;;23.89;100.00
9091;BME280;4581;42.416;25.598;2023-08-06T01:51:37;97051.72;;;23.87;100.00
9091;BME280;4581;42.416;25.598;2023-08-06T01:54:04;97048.66;;;23.88;100.00
9091;BME280;4581;42.416;25.598;2023-08-06T01:56:31;97056.91;;;23.88;100.00
9091;BME280;4581;42.416;25.598;2023-08-06T01:58:57;97059.22;;;23.81;100.00
9091;BME280;4581;42.416;25.598;2023-08-06T02:01:24;97049.63;;;23.78;100.00
9091;BME280;4581;42.416;25.598;2023-08-06T02:03:51;97053.78;;;23.76;100.00
9091;BME280;4581;42.416;25.598;2023-08-06T02:06:18;97043.38;;;23.73;100.00
9091;BME280;4581;42.416;25.598;2023-08-06T02:08:44;97042.28;;;23.74;100.00
9091;BME280;4581;42.416;25.598;2023-08-06T02:11:11;97040.13;;;23.71;100.00
9091;BME280;4581;42.416;25.598;2023-08-06T02:13:37;97037.88;;;23.73;100.00
9091;BME280;4581;42.416;25.598;2023-08-06T02:16:07;97031.53;;;23.72;100.00
9091;BME280;4581;42.416;25.598;2023-08-06T02:18:35;97035.72;;;23.70;100.00
9091;BME280;4581;42.416;25.598;2023-08-06T02:21:01;97028.63;;;23.64;100.00
9091;BME280;4581;42.416;25.598;2023-08-06T02:23:28;97026.41;;;23.66;100.00
9091;BME280;4581;42.416;25.598;2023-08-06T02:25:59;97036.88;;;23.64;100.00
9091;BME280;4581;42.416;25.598;2023-08-06T02:28:27;97039.56;;;23.69;100.00
9091;BME280;4581;42.416;25.598;2023-08-06T02:30:53;97032.44;;;23.68;100.00
9091;BME280;4581;42.416;25.598;2023-08-06T02:33:20;97039.56;;;23.69;100.00
9091;BME280;4581;42.416;25.598;2023-08-06T02:35:47;97036.81;;;23.69;100.00
9091;BME280;4581;42.416;25.598;2023-08-06T02:38:13;97033.69;;;23.75;100.00
9091;BME280;4581;42.416;25.598;2023-08-06T02:40:44;97036.75;;;23.74;100.00
9091;BME280;4581;42.416;25.598;2023-08-06T02:43:14;97036.75;;;23.74;100.00
9091;BME280;4581;42.416;25.598;2023-08-06T02:45:41;97033.47;;;23.72;100.00
9091;BME280;4581;42.416;25.598;2023-08-06T02:48:07;97017.34;;;23.65;100.00
9091;BME280;4581;42.416;25.598;2023-08-06T02:50:38;97035.28;;;23.63;100.00
9091;BME280;4581;42.416;25.598;2023-08-06T02:53:06;97037.19;;;23.62;100.00
9091;BME280;4581;42.416;25.598;2023-08-06T02:55:33;97041.44;;;23.55;100.00
9091;BME280;4581;42.416;25.598;2023-08-06T02:58:01;97046.84;;;23.60;100.00
9091;BME280;4581;42.416;25.598;2023-08-06T03:00:28;97051.84;;;23.58;100.00
9091;BME280;4581;42.416;25.598;2023-08-06T03:02:55;97059.03;;;23.54;100.00
9091;BME280;4581;42.416;25.598;2023-08-06T03:05:21;97059.31;;;23.52;100.00
9091;BME280;4581;42.416;25.598;2023-08-06T03:07:48;97045.78;;;23.56;100.00
9091;BME280;4581;42.416;25.598;2023-08-06T03:10:15;97044.97;;;23.55;100.00
9091;BME280;4581;42.416;25.598;2023-08-06T03:12:42;97046.34;;;23.58;100.00
9091;BME280;4581;42.416;25.598;2023-08-06T03:15:09;97042.97;;;23.61;100.00
9091;BME280;4581;42.416;25.598;2023-08-06T03:17:35;97036.66;;;23.60;100.00
9091;BME280;4581;42.416;25.598;2023-08-06T03:20:03;97036.31;;;23.67;100.00
9091;BME280;4581;42.416;25.598;2023-08-06T03:22:29;97034.91;;;23.69;100.00
9091;BME280;4581;42.416;25.598;2023-08-06T03:24:56;97025.88;;;23.64;100.00
9091;BME280;4581;42.416;25.598;2023-08-06T03:27:23;97032.44;;;23.68;100.00
9091;BME280;4581;42.416;25.598;2023-08-06T03:29:49;97032.81;;;23.80;100.00
9091;BME280;4581;42.416;25.598;2023-08-06T03:32:16;97018.59;;;23.73;100.00
9091;BME280;4581;42.416;25.598;2023-08-06T03:34:43;97023.16;;;23.83;100.00
9091;BME280;4581;42.416;25.598;2023-08-06T03:37:10;97028.19;;;23.75;100.00
9091;BME280;4581;42.416;25.598;2023-08-06T03:39:37;97017.19;;;23.75;100.00
9091;BME280;4581;42.416;25.598;2023-08-06T03:42:04;97033.13;;;23.78;100.00
9091;BME280;4581;42.416;25.598;2023-08-06T03:44:31;97023.22;;;23.77;100.00
9091;BME280;4581;42.416;25.598;2023-08-06T03:46:57;97019.34;;;23.78;100.00
9091;BME280;4581;42.416;25.598;2023-08-06T03:49:24;97023.38;;;23.86;100.00
9091;BME280;4581;42.416;25.598;2023-08-06T03:51:51;97026.56;;;23.93;100.00
9091;BME280;4581;42.416;25.598;2023-08-06T03:54:18;97020.25;;;23.93;100.00
9091;BME280;4581;42.416;25.598;2023-08-06T03:56:45;97017.81;;;23.91;100.00
9091;BME280;4581;42.416;25.598;2023-08-06T03:59:11;97016.16;;;23.90;100.00
9091;BME280;4581;42.416;25.598;2023-08-06T04:01:38;97014.44;;;23.94;100.00
9091;BME280;4581;42.416;25.598;2023-08-06T04:04:04;97019.34;;;23.97;100.00
9091;BME280;4581;42.416;25.598;2023-08-06T04:06:31;97020.84;;;23.90;100.00
9091;BME280;4581;42.416;25.598;2023-08-06T04:08:58;97028.28;;;23.89;100.00
9091;BME280;4581;42.416;25.598;2023-08-06T04:11:24;97029.25;;;23.98;100.00
9091;BME280;4581;42.416;25.598;2023-08-06T04:13:51;97036.53;;;24.08;100.00
9091;BME280;4581;42.416;25.598;2023-08-06T04:16:18;97031.78;;;24.13;100.00
9091;BME280;4581;42.416;25.598;2023-08-06T04:18:44;97025.63;;;24.21;100.00
9091;BME280;4581;42.416;25.598;2023-08-06T04:21:12;97026.06;;;24.29;100.00
9091;BME280;4581;42.416;25.598;2023-08-06T04:23:39;97032.38;;;24.29;100.00
9091;BME280;4581;42.416;25.598;2023-08-06T04:26:05;97032.59;;;24.33;100.00
9091;BME280;4581;42.416;25.598;2023-08-06T04:28:32;97038.94;;;24.33;100.00
9091;BME280;4581;42.416;25.598;2023-08-06T04:30:59;97032.94;;;24.45;100.00
9091;BME280;4581;42.416;25.598;2023-08-06T04:33:26;97031.22;;;24.49;100.00
9091;BME280;4581;42.416;25.598;2023-08-06T04:35:56;97030.53;;;24.57;100.00
9091;BME280;4581;42.416;25.598;2023-08-06T04:38:24;97038.03;;;24.70;100.00
9091;BME280;4581;42.416;25.598;2023-08-06T04:40:52;97029.78;;;24.84;99.15
9091;BME280;4581;42.416;25.598;2023-08-06T04:43:19;97023.00;;;24.95;99.01
9091;BME280;4581;42.416;25.598;2023-08-06T04:45:49;97027.16;;;24.92;98.83
9091;BME280;4581;42.416;25.598;2023-08-06T04:48:17;97026.66;;;25.04;98.26
9091;BME280;4581;42.416;25.598;2023-08-06T04:50:44;97023.69;;;25.00;98.13
9091;BME280;4581;42.416;25.598;2023-08-06T04:53:11;97020.25;;;25.08;97.91
9091;BME280;4581;42.416;25.598;2023-08-06T04:55:38;97023.81;;;25.09;97.78
9091;BME280;4581;42.416;25.598;2023-08-06T04:58:05;97024.84;;;25.13;97.61
9091;BME280;4581;42.416;25.598;2023-08-06T05:00:32;97024.94;;;25.22;96.38
9091;BME280;4581;42.416;25.598;2023-08-06T05:03:00;97022.09;;;25.27;96.27
9091;BME280;4581;42.416;25.598;2023-08-06T05:05:28;97031.28;;;25.36;96.72
9091;BME280;4581;42.416;25.598;2023-08-06T05:07:56;97023.81;;;25.50;95.55
9091;BME280;4581;42.416;25.598;2023-08-06T05:10:26;97021.09;;;25.64;95.36
9091;BME280;4581;42.416;25.598;2023-08-06T05:12:53;97017.78;;;25.75;94.61
9091;BME280;4581;42.416;25.598;2023-08-06T05:15:20;97013.97;;;25.85;92.50
9091;BME280;4581;42.416;25.598;2023-08-06T05:17:47;97016.16;;;25.74;92.90
9091;BME280;4581;42.416;25.598;2023-08-06T05:20:13;97022.59;;;25.70;92.43
9091;BME280;4581;42.416;25.598;2023-08-06T05:22:40;97023.41;;;25.70;93.50
9091;BME280;4581;42.416;25.598;2023-08-06T05:25:07;97025.75;;;25.77;93.52
9091;BME280;4581;42.416;25.598;2023-08-06T05:27:34;97011.94;;;25.77;93.20
9091;BME280;4581;42.416;25.598;2023-08-06T05:30:00;97022.38;;;25.80;91.56
9091;BME280;4581;42.416;25.598;2023-08-06T05:32:27;97031.81;;;25.65;91.85
9091;BME280;4581;42.416;25.598;2023-08-06T05:34:54;97032.00;;;25.69;91.05
9091;BME280;4581;42.416;25.598;2023-08-06T05:37:20;97022.50;;;25.75;90.91
9091;BME280;4581;42.416;25.598;2023-08-06T05:39:47;97023.31;;;25.75;92.32
9091;BME280;4581;42.416;25.598;2023-08-06T05:42:14;97020.13;;;25.68;91.96
9091;BME280;4581;42.416;25.598;2023-08-06T05:44:41;97010.72;;;25.69;92.06
9091;BME280;4581;42.416;25.598;2023-08-06T05:47:07;97005.81;;;25.80;90.77
9091;BME280;4581;42.416;25.598;2023-08-06T05:49:34;97016.31;;;25.91;89.48
9091;BME280;4581;42.416;25.598;2023-08-06T05:52:00;97015.06;;;25.97;89.14
9091;BME280;4581;42.416;25.598;2023-08-06T05:54:27;97008.91;;;26.00;89.08
9091;BME280;4581;42.416;25.598;2023-08-06T05:56:54;96996.81;;;26.10;89.88
9091;BME280;4581;42.416;25.598;2023-08-06T05:59:20;97002.19;;;26.29;88.09
9091;BME280;4581;42.416;25.598;2023-08-06T06:01:47;96996.06;;;26.32;87.48
9091;BME280;4581;42.416;25.598;2023-08-06T06:04:14;96982.16;;;26.45;87.96
9091;BME280;4581;42.416;25.598;2023-08-06T06:06:40;96968.53;;;26.80;89.00
9091;BME280;4581;42.416;25.598;2023-08-06T06:09:08;96978.13;;;27.13;85.73
9091;BME280;4581;42.416;25.598;2023-08-06T06:11:35;96982.75;;;27.26;83.22
9091;BME280;4581;42.416;25.598;2023-08-06T06:14:01;96984.53;;;27.31;83.12
9091;BME280;4581;42.416;25.598;2023-08-06T06:16:28;96989.38;;;27.17;83.82
9091;BME280;4581;42.416;25.598;2023-08-06T06:18:54;96990.66;;;27.11;83.92
9091;BME280;4581;42.416;25.598;2023-08-06T06:21:22;96987.50;;;26.95;84.74
9091;BME280;4581;42.416;25.598;2023-08-06T06:23:49;96983.41;;;26.92;84.75
9091;BME280;4581;42.416;25.598;2023-08-06T06:26:20;96981.84;;;27.00;85.27
9091;BME280;4581;42.416;25.598;2023-08-06T06:28:47;96986.94;;;27.15;83.68
9091;BME280;4581;42.416;25.598;2023-08-06T06:31:13;96989.03;;;27.10;82.88
9091;BME280;4581;42.416;25.598;2023-08-06T06:33:43;96996.38;;;27.14;84.03
9091;BME280;4581;42.416;25.598;2023-08-06T06:36:10;97009.13;;;27.24;83.71
9091;BME280;4581;42.416;25.598;2023-08-06T06:38:37;97007.47;;;27.23;84.41
9091;BME280;4581;42.416;25.598;2023-08-06T06:41:03;97005.97;;;27.17;83.64
9091;BME280;4581;42.416;25.598;2023-08-06T06:43:30;96993.56;;;27.06;83.81
9091;BME280;4581;42.416;25.598;2023-08-06T06:46:00;97010.63;;;26.99;83.39
9091;BME280;4581;42.416;25.598;2023-08-06T06:48:32;97005.53;;;26.92;83.96
9091;BME280;4581;42.416;25.598;2023-08-06T06:50:59;97013.34;;;26.90;84.91
9091;BME280;4581;42.416;25.598;2023-08-06T06:53:26;97008.03;;;26.80;85.11
9091;BME280;4581;42.416;25.598;2023-08-06T06:56:02;96991.84;;;26.65;86.06
9091;BME280;4581;42.416;25.598;2023-08-06T06:58:29;96987.91;;;26.58;86.82
9091;BME280;4581;42.416;25.598;2023-08-06T07:00:56;97006.19;;;26.45;86.75
9091;BME280;4581;42.416;25.598;2023-08-06T07:03:23;97012.47;;;26.37;87.55
9091;BME280;4581;42.416;25.598;2023-08-06T07:05:50;97008.53;;;26.29;87.91
9091;BME280;4581;42.416;25.598;2023-08-06T07:08:17;97002.81;;;26.26;88.90
9091;BME280;4581;42.416;25.598;2023-08-06T07:10:43;97024.09;;;26.25;88.76
9091;BME280;4581;42.416;25.598;2023-08-06T07:13:10;97063.72;;;26.21;88.72
9091;BME280;4581;42.416;25.598;2023-08-06T07:15:37;97079.41;;;26.12;89.59
9091;BME280;4581;42.416;25.598;2023-08-06T07:18:04;97061.28;;;26.05;89.48
9091;BME280;4581;42.416;25.598;2023-08-06T07:20:31;97078.97;;;26.04;89.85
9091;BME280;4581;42.416;25.598;2023-08-06T07:23:00;97062.53;;;25.99;91.00
9091;BME280;4581;42.416;25.598;2023-08-06T07:25:27;97060.28;;;26.01;91.65
9091;BME280;4581;42.416;25.598;2023-08-06T07:27:54;97081.25;;;26.02;89.60
9091;BME280;4581;42.416;25.598;2023-08-06T07:30:21;97087.81;;;25.93;89.93
9091;BME280;4581;42.416;25.598;2023-08-06T07:32:47;97105.44;;;25.83;90.48
9091;BME280;4581;42.416;25.598;2023-08-06T07:35:14;97097.34;;;25.73;91.26
9091;BME280;4581;42.416;25.598;2023-08-06T07:37:41;97058.91;;;25.63;92.66
9091;BME280;4581;42.416;25.598;2023-08-06T07:40:08;97022.41;;;25.66;93.09
9091;BME280;4581;42.416;25.598;2023-08-06T07:42:35;96967.81;;;25.63;91.68
9091;BME280;4581;42.416;25.598;2023-08-06T07:45:02;96931.50;;;25.56;92.11
9091;BME280;4581;42.416;25.598;2023-08-06T07:47:29;96907.91;;;25.50;92.09
9091;BME280;4581;42.416;25.598;2023-08-06T07:49:55;96905.75;;;25.47;91.47
9091;BME280;4581;42.416;25.598;2023-08-06T07:52:22;96924.47;;;25.50;92.32
9091;BME280;4581;42.416;25.598;2023-08-06T07:54:49;96910.13;;;25.48;93.29
9091;BME280;4581;42.416;25.598;2023-08-06T07:57:15;96895.03;;;25.45;93.28
9091;BME280;4581;42.416;25.598;2023-08-06T07:59:42;96881.03;;;25.42;92.85
9091;BME280;4581;42.416;25.598;2023-08-06T08:02:09;96902.31;;;25.28;93.88
9091;BME280;4581;42.416;25.598;2023-08-06T08:04:35;96962.63;;;25.21;93.95
9091;BME280;4581;42.416;25.598;2023-08-06T08:07:02;96981.63;;;25.22;93.34
9091;BME280;4581;42.416;25.598;2023-08-06T08:09:29;96970.06;;;25.20;94.52
9091;BME280;4581;42.416;25.598;2023-08-06T08:11:56;96961.41;;;25.27;93.48
9091;BME280;4581;42.416;25.598;2023-08-06T08:14:26;97014.94;;;25.26;93.70
9091;BME280;4581;42.416;25.598;2023-08-06T08:16:53;97019.94;;;25.24;94.03
9091;BME280;4581;42.416;25.598;2023-08-06T08:19:19;96991.03;;;25.21;94.40
9091;BME280;4581;42.416;25.598;2023-08-06T08:21:47;97005.41;;;25.32;93.00
9091;BME280;4581;42.416;25.598;2023-08-06T08:24:14;97012.09;;;25.31;93.94
9091;BME280;4581;42.416;25.598;2023-08-06T08:26:41;97004.91;;;25.30;94.36
9091;BME280;4581;42.416;25.598;2023-08-06T08:29:07;96994.19;;;25.42;93.96
9091;BME280;4581;42.416;25.598;2023-08-06T08:31:34;96982.63;;;25.40;94.00
9091;BME280;4581;42.416;25.598;2023-08-06T08:34:05;96979.38;;;25.38;94.97
9091;BME280;4581;42.416;25.598;2023-08-06T08:36:32;96983.03;;;25.47;94.48
9091;BME280;4581;42.416;25.598;2023-08-06T08:38:59;96978.44;;;25.56;93.17
9091;BME280;4581;42.416;25.598;2023-08-06T08:41:29;96980.72;;;25.54;94.81
9091;BME280;4581;42.416;25.598;2023-08-06T08:43:56;96975.75;;;25.65;94.54
9091;BME280;4581;42.416;25.598;2023-08-06T08:46:26;96967.91;;;25.72;94.69
9091;BME280;4581;42.416;25.598;2023-08-06T08:48:54;96968.94;;;25.62;93.75
9091;BME280;4581;42.416;25.598;2023-08-06T08:51:22;96961.22;;;25.73;91.62
9091;BME280;4581;42.416;25.598;2023-08-06T08:53:49;96972.63;;;25.93;92.95
9091;BME280;4581;42.416;25.598;2023-08-06T08:56:19;96959.06;;;26.05;91.82
9091;BME280;4581;42.416;25.598;2023-08-06T08:58:45;96954.34;;;26.20;91.26
9091;BME280;4581;42.416;25.598;2023-08-06T09:01:12;96963.13;;;26.22;91.28
9091;BME280;4581;42.416;25.598;2023-08-06T09:03:39;96966.50;;;26.41;93.44
9091;BME280;4581;42.416;25.598;2023-08-06T09:06:07;96968.44;;;26.93;88.05
9091;BME280;4581;42.416;25.598;2023-08-06T09:08:46;96972.25;;;27.54;86.64
9091;BME280;4581;42.416;25.598;2023-08-06T09:11:13;96974.91;;;27.93;80.33
9091;BME280;4581;42.416;25.598;2023-08-06T09:13:41;96985.31;;;27.97;80.39
9091;BME280;4581;42.416;25.598;2023-08-06T09:16:10;96991.53;;;28.02;80.10
9091;BME280;4581;42.416;25.598;2023-08-06T09:18:40;96993.69;;;28.40;77.61
9091;BME280;4581;42.416;25.598;2023-08-06T09:21:13;96998.84;;;28.93;75.60
9091;BME280;4581;42.416;25.598;2023-08-06T09:23:40;97004.34;;;29.01;77.15
9091;BME280;4581;42.416;25.598;2023-08-06T09:26:11;97007.34;;;28.88;73.33
9091;BME280;4581;42.416;25.598;2023-08-06T09:28:40;97003.75;;;28.61;73.68
9091;BME280;4581;42.416;25.598;2023-08-06T09:31:09;97005.59;;;28.40;75.19
9091;BME280;4581;42.416;25.598;2023-08-06T09:33:39;96985.22;;;28.19;77.34
9091;BME280;4581;42.416;25.598;2023-08-06T09:36:09;96968.72;;;28.05;80.19
9091;BME280;4581;42.416;25.598;2023-08-06T09:38:40;96974.59;;;28.21;81.57
9091;BME280;4581;42.416;25.598;2023-08-06T09:41:07;96980.41;;;28.79;77.43
9091;BME280;4581;42.416;25.598;2023-08-06T09:43:40;96987.75;;;28.84;75.16
9091;BME280;4581;42.416;25.598;2023-08-06T09:46:14;96971.59;;;28.77;76.31
9091;BME280;4581;42.416;25.598;2023-08-06T09:48:46;96962.75;;;28.93;74.62
9091;BME280;4581;42.416;25.598;2023-08-06T09:51:13;96959.66;;;28.86;75.39
9091;BME280;4581;42.416;25.598;2023-08-06T09:53:40;96950.72;;;29.18;73.35
9091;BME280;4581;42.416;25.598;2023-08-06T09:56:09;96971.19;;;29.43;70.78
9091;BME280;4581;42.416;25.598;2023-08-06T09:58:38;96957.63;;;29.41;71.19
9091;BME280;4581;42.416;25.598;2023-08-06T10:01:06;96958.84;;;29.32;70.49
9091;BME280;4581;42.416;25.598;2023-08-06T10:03:33;96956.16;;;29.06;70.04
9091;BME280;4581;42.416;25.598;2023-08-06T10:06:00;96936.19;;;28.83;72.79
9091;BME280;4581;42.416;25.598;2023-08-06T10:08:32;96941.66;;;29.38;72.27
9091;BME280;4581;42.416;25.598;2023-08-06T10:11:00;96947.50;;;29.66;65.67
9091;BME280;4581;42.416;25.598;2023-08-06T10:13:30;96956.19;;;29.64;65.03
9091;BME280;4581;42.416;25.598;2023-08-06T10:15:57;96964.81;;;29.71;67.43
9091;BME280;4581;42.416;25.598;2023-08-06T10:18:24;96959.81;;;29.65;71.55
9091;BME280;4581;42.416;25.598;2023-08-06T10:20:51;96968.91;;;29.65;67.47
9091;BME280;4581;42.416;25.598;2023-08-06T10:23:18;96969.69;;;29.45;67.92
9091;BME280;4581;42.416;25.598;2023-08-06T10:25:53;96971.19;;;29.43;67.51
9091;BME280;4581;42.416;25.598;2023-08-06T10:28:22;96966.88;;;29.24;71.49
9091;BME280;4581;42.416;25.598;2023-08-06T10:30:48;96979.16;;;29.53;65.94
9091;BME280;4581;42.416;25.598;2023-08-06T10:33:19;96979.31;;;29.10;69.27
9091;BME280;4581;42.416;25.598;2023-08-06T10:35:48;96968.22;;;29.10;71.34
9091;BME280;4581;42.416;25.598;2023-08-06T10:38:22;96973.63;;;29.06;72.24
9091;BME280;4581;42.416;25.598;2023-08-06T10:43:31;96986.56;;;29.40;70.88
9091;BME280;4581;42.416;25.598;2023-08-06T10:46:01;96985.66;;;29.19;71.81
9091;BME280;4581;42.416;25.598;2023-08-06T10:48:34;96982.34;;;28.96;72.55
9091;BME280;4581;42.416;25.598;2023-08-06T10:51:01;96985.75;;;28.93;71.13
9091;BME280;4581;42.416;25.598;2023-08-06T10:53:28;96979.28;;;29.18;74.92
9091;BME280;4581;42.416;25.598;2023-08-06T10:55:59;96981.50;;;29.42;68.77
9091;BME280;4581;42.416;25.598;2023-08-06T10:58:36;96984.44;;;29.37;67.50
9091;BME280;4581;42.416;25.598;2023-08-06T11:01:02;96998.31;;;28.99;71.32
9091;BME280;4581;42.416;25.598;2023-08-06T11:03:29;96993.00;;;28.68;73.64
9091;BME280;4581;42.416;25.598;2023-08-06T11:05:56;96991.38;;;28.50;74.59
9091;BME280;4581;42.416;25.598;2023-08-06T11:08:27;97003.13;;;28.47;75.05
9091;BME280;4581;42.416;25.598;2023-08-06T11:10:54;97009.19;;;28.41;71.23
9091;BME280;4581;42.416;25.598;2023-08-06T11:13:29;97036.25;;;28.18;65.94
9091;BME280;4581;42.416;25.598;2023-08-06T11:15:56;97039.09;;;27.78;66.60
9091;BME280;4581;42.416;25.598;2023-08-06T11:18:24;97032.59;;;27.35;67.60
9091;BME280;4581;42.416;25.598;2023-08-06T11:20:51;97036.25;;;27.13;68.35
9091;BME280;4581;42.416;25.598;2023-08-06T11:23:18;97035.03;;;27.28;68.90
9091;BME280;4581;42.416;25.598;2023-08-06T11:25:45;97032.06;;;27.64;68.32
9091;BME280;4581;42.416;25.598;2023-08-06T11:28:12;97036.19;;;27.83;70.18
9091;BME280;4581;42.416;25.598;2023-08-06T11:30:40;97048.31;;;28.22;65.62
9091;BME280;4581;42.416;25.598;2023-08-06T11:33:07;97050.28;;;28.47;66.40
9091;BME280;4581;42.416;25.598;2023-08-06T11:35:37;97067.06;;;28.59;63.47
9091;BME280;4581;42.416;25.598;2023-08-06T11:38:04;97060.38;;;28.95;62.94
9091;BME280;4581;42.416;25.598;2023-08-06T11:40:32;97059.97;;;29.31;58.24
9091;BME280;4581;42.416;25.598;2023-08-06T11:42:59;97068.16;;;29.65;55.23
9091;BME280;4581;42.416;25.598;2023-08-06T11:45:25;97072.13;;;29.85;55.65
9091;BME280;4581;42.416;25.598;2023-08-06T11:47:53;97070.16;;;30.14;53.94
9091;BME280;4581;42.416;25.598;2023-08-06T11:50:24;97070.91;;;30.53;53.17
9091;BME280;4581;42.416;25.598;2023-08-06T11:52:56;97085.94;;;30.73;51.85
9091;BME280;4581;42.416;25.598;2023-08-06T11:55:24;97072.38;;;30.50;52.84
9091;BME280;4581;42.416;25.598;2023-08-06T11:57:51;97077.69;;;30.64;50.91
9091;BME280;4581;42.416;25.598;2023-08-06T12:00:18;97082.94;;;30.78;50.14
9091;BME280;4581;42.416;25.598;2023-08-06T12:02:46;97079.50;;;30.81;50.64
9091;BME280;4581;42.416;25.598;2023-08-06T12:05:14;97078.69;;;30.59;49.67
9091;BME280;4581;42.416;25.598;2023-08-06T12:07:43;97080.53;;;30.55;48.65
9091;BME280;4581;42.416;25.598;2023-08-06T12:10:11;97083.22;;;30.85;46.67
9091;BME280;4581;42.416;25.598;2023-08-06T12:12:38;97067.97;;;31.03;45.43
9091;BME280;4581;42.416;25.598;2023-08-06T12:15:06;97078.13;;;30.66;45.84
9091;BME280;4581;42.416;25.598;2023-08-06T12:17:34;97075.97;;;30.72;46.32
9091;BME280;4581;42.416;25.598;2023-08-06T12:20:01;97073.28;;;30.96;45.05
9091;BME280;4581;42.416;25.598;2023-08-06T12:22:28;97062.84;;;30.93;46.39
9091;BME280;4581;42.416;25.598;2023-08-06T12:24:54;97067.59;;;31.25;44.79
9091;BME280;4581;42.416;25.598;2023-08-06T12:27:21;97066.22;;;31.43;44.55
9091;BME280;4581;42.416;25.598;2023-08-06T12:29:48;97051.38;;;31.51;44.08
9091;BME280;4581;42.416;25.598;2023-08-06T12:32:15;97056.63;;;31.65;43.65
9091;BME280;4581;42.416;25.598;2023-08-06T12:34:42;97052.66;;;31.66;42.50
9091;BME280;4581;42.416;25.598;2023-08-06T12:37:19;97059.66;;;31.60;42.71
9091;BME280;4581;42.416;25.598;2023-08-06T12:39:46;97053.44;;;31.42;43.02
9091;BME280;4581;42.416;25.598;2023-08-06T12:42:13;97047.63;;;31.35;44.22
9091;BME280;4581;42.416;25.598;2023-08-06T12:44:40;97059.34;;;31.29;42.02
9091;BME280;4581;42.416;25.598;2023-08-06T12:47:07;97050.66;;;30.97;43.00
9091;BME280;4581;42.416;25.598;2023-08-06T12:49:34;97059.66;;;30.61;43.75
9091;BME280;4581;42.416;25.598;2023-08-06T12:52:01;97049.84;;;30.64;44.82
9091;BME280;4581;42.416;25.598;2023-08-06T12:54:28;97052.13;;;30.62;45.27
9091;BME280;4581;42.416;25.598;2023-08-06T12:56:55;97056.44;;;30.59;43.54
9091;BME280;4581;42.416;25.598;2023-08-06T12:59:22;97045.31;;;30.59;44.19
9091;BME280;4581;42.416;25.598;2023-08-06T13:01:48;97040.06;;;30.58;43.39
9091;BME280;4581;42.416;25.598;2023-08-06T13:04:16;97036.88;;;30.68;43.50
9091;BME280;4581;42.416;25.598;2023-08-06T13:06:49;97043.72;;;30.71;43.48
9091;BME280;4581;42.416;25.598;2023-08-06T13:09:17;97043.59;;;30.67;43.53
9091;BME280;4581;42.416;25.598;2023-08-06T13:11:44;97040.41;;;30.36;44.16
9091;BME280;4581;42.416;25.598;2023-08-06T13:14:14;97036.25;;;30.42;44.38
9091;BME280;4581;42.416;25.598;2023-08-06T13:16:54;97046.97;;;30.10;44.57
9091;BME280;4581;42.416;25.598;2023-08-06T13:19:21;97031.72;;;29.96;45.19
9091;BME280;4581;42.416;25.598;2023-08-06T13:24:16;97036.66;;;29.82;45.45